Etusivu
METAR-TAF:

METAR-TAF

Lentoasemat :

Shanghai Hongqiaon kansainvälinen lentoasema

Shanghai-Hongqiao, Kiina

Leveyspiiri: 31-10N, Pituuspiiri: 121-26E, korkeus merenpinnasta: 7 m

Tämänhetkinen sää

Tämä raportti tehtiin 22 minuuttia sitten, kello 09.00 UTC
Tuuli 10 kn kaakosta, vaihdellen idän/kaakon ja etelän välillä
Lämpötila 25°C
Kosteus 54%
Ilmanpaine 1015 hPa
Näkyvyys 10 km tai enemmän
ei pilviä alle 1500 m:ssä eikä cumulonimbus-pilviä

METAR: ZSSS 210900Z 14005MPS 110V170 CAVOK 25/15 Q1015 NOSIG

Aika: 17:22 (09:22 UTC)

Sääennuste

Tämä raportti tehtiin 6 tuntia ja 9 minuuttia sitten, kello 03.13 UTC
Ennuste voimassa 21. päivästä klo 06 UTC - 22. päivään klo 06 UTC
Tuuli 8 kn idästä
Näkyvyys: 8000 m
Hajonneita pilviä 1500 ft:n korkeudessa

TAF: ZSSS 210313Z 2106/2206 09004MPS 8000 BKN015 TX28/2206Z TN19/2121Z

Säähavainnot ja -ennusteet yli 4000 lentoasemalta (METAR- ja TAF-raportit).

Käytössä olevat sääasemat on merkitty karttaan keltaisilla ja punaisilla pisteillä.

Aseta hiiri pisteen päälle nähdäksesi sääaseman nimen.

Klikkaa sitten nähdäksesi säähavainnot ja -ennusteet.

Kartan vaihtaminen: klikkaa mustalla rastilla varustettuja vihreitä pisteitä, niin voit zoomata sisään; viivalla varustettua vihreää pistettä, niin voit zoomata ulos tai vihreitä nuolia, niin pääset viereisille kartoille.


METAR-TAF: